Flight Track Log - Related Links

Times and Time Zones

All times are in EDT time to prevent confusion due to time zone crossing. See the SWA127 flight status page for this flight to view local times or setup timezone preferences in your user account.

Time Position Orientation Groundspeed Altitude Reporting Facility
EDT Latitude Longitude Course Direction KTS MPH feet Rate Location/Type
Fri 06:38:38 AM 40.4894 -80.1992 106° East 171 197 2,100  Level FAA TRACON SMA TRACON (SMA)
Fri 06:38:59 AM 40.4853 -80.1803 106° East 178 205 2,700 1,610 Climbing FAA TRACON SMA TRACON (SMA)
Fri 06:39:19 AM 40.4733 -80.1678 141° Southeast 181 208 3,200 1,950 Climbing FAA TRACON SMA TRACON (SMA)
Fri 06:39:39 AM 40.4531 -80.1664 177° South 197 227 4,000 2,400 Climbing FAA TRACON SMA TRACON (SMA)
Fri 06:39:59 AM 40.4361 -80.1706 191° South 199 229 4,800 1,800 Climbing FAA TRACON SMA TRACON (SMA)
Fri 06:40:19 AM 40.4181 -80.1725 185° South 208 239 5,200 2,100 Climbing FAA TRACON SMA TRACON (SMA)
Fri 06:40:39 AM 40.3947 -80.1744 184° South 216 249 6,200 2,850 Climbing FAA TRACON SMA TRACON (SMA)
Fri 06:40:59 AM 40.3756 -80.1758 183° South 218 251 7,100 2,700 Climbing FAA TRACON SMA TRACON (SMA)
Fri 06:41:19 AM 40.3564 -80.1778 184° South 225 259 8,000 3,000 Climbing FAA TRACON SMA TRACON (SMA)
Fri 06:41:39 AM 40.3317 -80.1797 183° South 230 265 9,100 2,850 Climbing FAA TRACON SMA TRACON (SMA)
Fri 06:41:59 AM 40.3114 -80.1817 184° South 236 272 9,900 1,950 Climbing FAA TRACON SMA TRACON (SMA)
Fri 06:42:19 AM 40.2897 -80.1836 184° South 252 290 10,400 1,800 Climbing FAA TRACON SMA TRACON (SMA)
Fri 06:42:39 AM 40.2669 -80.1858 184° South 263 303 11,100 1,800 Climbing FAA TRACON SMA TRACON (SMA)
Fri 06:42:59 AM 40.2361 -80.1883 184° South 287 330 11,600 2,400 Climbing FAA TRACON SMA TRACON (SMA)
Fri 06:43:19 AM 40.2103 -80.1908 184° South 294 338 12,700 4,200 Climbing FAA TRACON SMA TRACON (SMA)
Fri 06:43:39 AM 40.1797 -80.1936 184° South 282 325 14,400 4,050 Climbing FAA TRACON SMA TRACON (SMA)
Fri 06:43:59 AM 40.1567 -80.1956 184° South 270 311 15,400 1,500 Climbing FAA TRACON SMA TRACON (SMA)
Fri 06:44:19 AM 40.1567 -80.1956 134° Southeast 270 311 15,400 1,263 Level FAA TRACON SMA TRACON (SMA)
Fri 06:44:56 AM 40.0853 -80.2006 183° South 285 328 16,600 990 Climbing Cleveland Center
Fri 06:45:56 AM 39.9978 -80.2064 183° South 295 339 17,000 200 Climbing Cleveland Center
Fri 06:46:56 AM 39.9122 -80.2122 183° South 306 352 17,000  Level Cleveland Center
Fri 06:47:56 AM 39.8331 -80.2208 185° South 306 352 17,000 50 Level Cleveland Center
Fri 06:48:56 AM 39.7519 -80.2267 183° South 301 346 17,100 1,558 Climbing Cleveland Center
Fri 06:51:24 AM 39.5614 -80.2433 184° South 290 334 22,400 1,673 Climbing Washington Center
Fri 06:52:24 AM 39.4778 -80.2486 183° South 290 334 22,900 300 Climbing Washington Center
Fri 06:53:24 AM 39.3942 -80.2567 184° South 290 334 23,000 550 Climbing Washington Center
Fri 06:54:24 AM 39.3083 -80.2644 184° South 296 341 24,000 900 Climbing Washington Center
Fri 06:55:24 AM 39.2181 -80.2800 188° South 313 360 24,800 850 Climbing Washington Center
Fri 06:56:24 AM 39.1231 -80.3089 193° South 332 382 25,700 1,150 Climbing Washington Center
Fri 06:57:24 AM 39.0261 -80.3372 193° South 346 398 27,100 1,250 Climbing Washington Center
Fri 06:58:24 AM 38.9292 -80.3631 192° South 359 413 28,200 1,000 Climbing Washington Center
Fri 06:59:24 AM 38.8300 -80.3939 194° South 364 419 29,100 750 Climbing Washington Center
Fri 07:00:24 AM 38.7222 -80.4322 196° South 372 428 29,700 850 Climbing Washington Center
Fri 07:01:24 AM 38.6081 -80.4644 192° South 390 449 30,800 1,450 Climbing Washington Center
Fri 07:02:24 AM 38.5047 -80.4947 193° South 396 456 32,600 1,300 Climbing Washington Center
Fri 07:03:24 AM 38.4014 -80.5250 193° South 391 450 33,400 650 Climbing Washington Center
Fri 07:04:24 AM 38.2983 -80.5472 190° South 386 444 33,900 300 Climbing Washington Center
Fri 07:05:24 AM 38.2061 -80.5572 185° South 375 432 34,000 -50 Climbing Washington Center
Fri 07:06:24 AM 38.1011 -80.5739 187° South 375 432 33,800 -100 Descending Washington Center
Fri 07:07:24 AM 37.9983 -80.5881 186° South 375 432 33,800 -200 Level Washington Center
Fri 07:08:24 AM 37.8850 -80.6042 186° South 375 432 33,400 -400 Descending Washington Center
Fri 07:09:24 AM 37.7819 -80.6211 187° South 375 432 33,000 -123 Descending Washington Center
Fri 07:11:39 AM 37.5461 -80.6522 186° South 404 465 33,000  Level Atlanta Center
Fri 07:12:39 AM 37.4403 -80.6672 186° South 404 465 33,000  Level Atlanta Center
Fri 07:13:39 AM 37.3197 -80.6856 187° South 404 465 33,000  Level Atlanta Center
Fri 07:14:39 AM 37.2097 -80.7006 186° South 404 465 33,000 -350 Level Atlanta Center
Fri 07:15:39 AM 37.0997 -80.7131 185° South 404 465 32,300 -500 Descending Atlanta Center
Fri 07:16:39 AM 37.0042 -80.7250 186° South 404 465 32,000 -150 Descending Atlanta Center
Fri 07:17:39 AM 36.8958 -80.7347 184° South 404 465 32,000  Level Atlanta Center
Fri 07:18:39 AM 36.7836 -80.7472 185° South 404 465 32,000  Level Atlanta Center
Fri 07:19:39 AM 36.6775 -80.7567 184° South 397 457 32,000  Level Atlanta Center
Fri 07:20:39 AM 36.5550 -80.7719 186° South 403 464 32,000  Level Atlanta Center
Fri 07:21:39 AM 36.4425 -80.7817 184° South 403 464 32,000  Level Atlanta Center
Fri 07:22:39 AM 36.3325 -80.7939 185° South 403 464 32,000  Level Atlanta Center
Fri 07:23:39 AM 36.2200 -80.8064 185° South 403 464 32,000  Level Atlanta Center
Fri 07:24:39 AM 36.1036 -80.8186 185° South 403 464 32,000  Level Atlanta Center
Fri 07:25:39 AM 35.9933 -80.8333 186° South 403 464 32,000  Level Atlanta Center
Fri 07:26:39 AM 35.8811 -80.8428 184° South 403 464 32,000  Level Atlanta Center
Fri 07:27:39 AM 35.7686 -80.8550 185° South 408 470 32,000  Level Atlanta Center
Fri 07:28:39 AM 35.6667 -80.8639 184° South 408 470 32,000  Level Atlanta Center
Fri 07:29:39 AM 35.5525 -80.8786 186° South 408 470 32,000  Level Atlanta Center
Fri 07:30:39 AM 35.4400 -80.8881 184° South 408 470 32,000  Level Atlanta Center
Fri 07:31:39 AM 35.3256 -80.9053 187° South 413 475 32,000  Level Atlanta Center
Fri 07:32:39 AM 35.2028 -80.9150 184° South 413 475 32,000  Level Atlanta Center
Fri 07:33:39 AM 35.0906 -80.9292 186° South 408 470 32,000  Level Atlanta Center
Fri 07:34:39 AM 34.9781 -80.9436 186° South 408 470 32,000  Level Atlanta Center
Fri 07:36:52 AM 34.7292 -80.9625 184° South 410 472 32,000  Level Jacksonville Center
Fri 07:37:52 AM 34.6147 -80.9778 186° South 405 466 32,000  Level Jacksonville Center
Fri 07:38:52 AM 34.5042 -80.9878 184° South 405 466 32,000  Level Jacksonville Center
Fri 07:39:52 AM 34.3919 -81.0053 187° South 412 474 32,000  Level Jacksonville Center
Fri 07:40:52 AM 34.2794 -81.0128 183° South 407 468 32,000  Level Jacksonville Center
Fri 07:41:52 AM 34.1669 -81.0228 184° South 407 468 32,000  Level Jacksonville Center
Fri 07:42:52 AM 34.0544 -81.0353 185° South 407 468 32,000  Level Jacksonville Center
Fri 07:43:52 AM 33.9397 -81.0478 185° South 407 468 32,000  Level Jacksonville Center
Fri 07:44:52 AM 33.8292 -81.0550 183° South 407 468 32,000  Level Jacksonville Center
Fri 07:45:52 AM 33.7147 -81.0700 186° South 407 468 32,000  Level Jacksonville Center
Fri 07:46:52 AM 33.6042 -81.0797 184° South 407 468 32,000  Level Jacksonville Center
Fri 07:47:52 AM 33.4917 -81.0894 184° South 407 468 32,000  Level Jacksonville Center
Fri 07:48:52 AM 33.3811 -81.0992 184° South 407 468 32,000  Level Jacksonville Center
Fri 07:49:52 AM 33.2728 -81.1064 183° South 407 468 32,000  Level Jacksonville Center
Fri 07:50:52 AM 33.1581 -81.1186 185° South 407 468 32,000  Level Jacksonville Center
Fri 07:51:52 AM 33.0497 -81.1256 183° South 407 468 32,000  Level Jacksonville Center
Fri 07:52:52 AM 32.9350 -81.1353 184° South 407 468 32,000  Level Jacksonville Center
Fri 07:53:52 AM 32.8244 -81.1447 184° South 407 468 32,000  Level Jacksonville Center
Fri 07:54:52 AM 32.7100 -81.1544 184° South 407 468 32,000  Level Jacksonville Center
Fri 07:55:52 AM 32.6100 -81.1664 186° South 405 466 32,000  Level Jacksonville Center
Fri 07:56:52 AM 32.4867 -81.1736 183° South 405 466 32,000  Level Jacksonville Center
Fri 07:57:52 AM 32.3742 -81.1831 184° South 405 466 32,000  Level Jacksonville Center
Fri 07:58:52 AM 32.2617 -81.1900 183° South 405 466 32,000  Level Jacksonville Center
Fri 07:59:52 AM 32.1511 -81.1994 184° South 405 466 32,000  Level Jacksonville Center
Fri 08:00:52 AM 32.0383 -81.1967 179° South 406 467 32,000  Level Jacksonville Center
Fri 08:01:52 AM 31.9339 -81.1936 179° South 406 467 32,000  Level Jacksonville Center
Fri 08:02:52 AM 31.8128 -81.1886 178° South 399 459 32,000  Level Jacksonville Center
Fri 08:03:52 AM 31.7000 -81.1858 179° South 405 466 32,000  Level Jacksonville Center
Fri 08:04:52 AM 31.5997 -81.1828 179° South 406 467 32,000  Level Jacksonville Center
Fri 08:05:52 AM 31.4742 -81.1778 178° South 406 467 32,000  Level Jacksonville Center
Fri 08:06:52 AM 31.3742 -81.1747 179° South 407 468 32,000  Level Jacksonville Center
Fri 08:07:52 AM 31.2467 -81.1744 180° South 407 468 32,000  Level Jacksonville Center
Fri 08:08:52 AM 31.1339 -81.1694 178° South 403 464 32,000  Level Jacksonville Center
Fri 08:09:52 AM 31.0211 -81.1667 179° South 403 464 32,000  Level Jacksonville Center
Fri 08:10:52 AM 30.9042 -81.1614 178° South 403 464 32,000  Level Jacksonville Center
Fri 08:11:52 AM 30.7892 -81.1586 179° South 410 472 32,000  Level Jacksonville Center
Fri 08:12:52 AM 30.6722 -81.1536 178° South 415 478 32,000  Level Jacksonville Center
Fri 08:13:52 AM 30.5594 -81.1533 180° South 415 478 32,000  Level Jacksonville Center
Fri 08:14:52 AM 30.4403 -81.1481 178° South 420 483 32,000  Level Jacksonville Center
Fri 08:15:52 AM 30.3214 -81.1431 178° South 420 483 32,000 -350 Level Jacksonville Center
Fri 08:16:52 AM 30.2022 -81.1428 180° South 420 483 31,300 -950 Descending Jacksonville Center
Fri 08:17:52 AM 30.0833 -81.1356 177° South 420 483 30,100 -1,300 Descending Jacksonville Center
Fri 08:18:52 AM 29.9622 -81.1328 179° South 425 489 28,700 -1,600 Descending Jacksonville Center
Fri 08:19:52 AM 29.8411 -81.1328 180° South 431 496 26,900 -2,300 Descending Jacksonville Center
Fri 08:20:52 AM 29.7242 -81.1300 179° South 431 496 24,100 -2,500 Descending Jacksonville Center
Fri 08:21:52 AM 29.6092 -81.1250 178° South 425 489 21,900 -2,000 Descending Jacksonville Center
Fri 08:22:52 AM 29.5006 -81.1244 180° South 404 465 20,100 -2,300 Descending Jacksonville Center
Fri 08:23:52 AM 29.4086 -81.1167 176° South 383 441 17,300 -2,850 Descending Jacksonville Center
Fri 08:24:52 AM 29.3000 -81.1139 179° South 383 441 14,400 -2,250 Descending Jacksonville Center
Fri 08:25:52 AM 29.1978 -81.1061 176° South 378 435 12,800 -1,250 Descending Jacksonville Center
Fri 08:26:52 AM 29.1078 -81.1031 178° South 357 411 11,900 -450 Descending Jacksonville Center
Fri 08:27:52 AM 29.0244 -81.0972 176° South 325 374 11,900 -450 Level Jacksonville Center
Fri 08:28:52 AM 28.9447 -81.0822 171° South 303 349 11,000 -1,252 Descending Jacksonville Center
Fri 08:29:47 AM 28.8667 -81.0667 170° South 288 331 9,500 -1,526 Descending Orlando TRACON
Fri 08:30:46 AM 28.7833 -81.0500 170° South 264 304 8,100 -1,500 Descending Orlando TRACON
Fri 08:31:47 AM 28.7500 -81.1167 240° Southwest 243 280 6,500 -1,465 Descending Orlando TRACON
Fri 08:32:53 AM 28.7000 -81.1833 229° Southwest 236 272 5,000 -1,238 Descending Orlando TRACON
Fri 08:33:53 AM 28.6500 -81.2333 221° Southwest 220 253 3,900 -1,000 Descending Orlando TRACON
Fri 08:34:59 AM 28.6167 -81.2833 233° Southwest 201 231 2,900 -619 Descending Orlando TRACON
Fri 08:35:59 AM 28.5667 -81.3000 196° South 168 193 2,600 -526 Descending Orlando TRACON
Fri 08:36:53 AM 28.5333 -81.3000 180° South 152 175 1,900 -722 Descending Orlando TRACON
Fri 08:37:47 AM 28.5000 -81.3000 180° South 116 133 1,300 -632 Descending Orlando TRACON
Fri 08:38:47 AM 28.4667 -81.3000 180° South 122 140 700 -600 Descending Orlando TRACON
Fri 08:40:00 AM 28.4294 -81.3090 180° South  Level Estimated
Fri 08:47:00 AM 28.4294 -81.3090 180° South  Level Estimated
Fri 08:48:00 AM 28.4294 -81.3090 180° South  Level Estimated
Fri 08:49:00 AM 28.4294 -81.3090 180° South  Level Estimated
Fri 08:50:00 AM 28.4294 -81.3090 180° South  Level Estimated

Login

Don't have an account? Register now (free) for customized features, flight alerts, and more!